Cappeln, Missouri
Current Conditions -  °F | °C
As of 5:55 PM on Sunday 21 Dec 2014 (Local Time) from KFYG Reporting Station
Overcast Overcast  
Wind Chill: 35°   Ceiling: 4400
Heat Index: 41°   Visibility: 10mi
Dew Point: 36°   Wind: 9mph
Humidity: 81%   Direction: 150°SSE
Pressure: 29.99"   Gusts: NA
Location:  38.7556°N, 90.9389°W
Report Text: KFYG 212355Z AUTO 15008KT 10SM OVC044 05/02 A2999 RMK AO2
Loading
Personal Weather Stations






























Interactive Weather Map New forecast layout! Learn more

10-Day Weather Forecast

Advertisements
Track Severe Weather on mobile